weather station
Area: 7197 km2
The highest point: Čupec (819 m.s.l.)
Total stations: 37
Stations online: 34
Stations offline: 3
Current weather
15°C

Meteorological map - weather stations in Jihomoravský

. The meteorological maps show weather information from WARIO weather stations

Weather stations Jihomoravský

 UpdatesNameStatusTemperatureHumidityWind speedWind direction
1.10.2022 13:38Olešnice14.6 °C61.6 %2.8 m/s N
1.10.2022 13:38Archlebov14.9 °C76.7 %1.3 m/s W
30.8.2022 17:30Boskovice25.0 °C40.9 %0.9 m/s E
1.10.2022 13:38Brno - Královo Pole14.5 °C70.4 %0.0 m/s SE
1.10.2022 13:38Brno-Líšeň14.7 °C57.8 %1.8 m/s S
1.10.2022 13:38Brno - Řečkovice15.4 °C60.7 %1.9 m/s W
1.10.2022 13:38Brno - Vinohrady14.8 °C68.0 %2.6 m/s W
1.10.2022 03:20Brno-Kníničky10.1 °C97.8 %0.0 m/s NE
1.10.2022 13:37Bzenec15.6 °C66.2 %1.6 m/s NW
1.10.2022 12:10Nížkovice17.2 °C65.8 %1.0 m/s N
1.10.2022 13:38Moravany14.0 °C85.4 %0.0 m/s E
1.10.2022 13:38Lesní Hluboké 16.2 °C58.6 %1.3 m/s S
1.10.2022 13:38Vranov13.6 °C86.3 %1.0 m/s NW
1.10.2022 13:38Brno - Lesná14.9 °C67.9 %3.0 m/s S
1.10.2022 13:37Olešnice14.6 °C59.3 %0.9 m/s S
1.10.2022 13:38Dolní Dubňany15.0 °C59.8 %3.0 m/s SE
1.10.2022 13:38Svatobořice17.0 °C72.4 %0.9 m/s S
1.10.2022 13:38Mikulov16.7 °C61.9 %1.4 m/s SW
1.10.2022 13:37Mutěnice15.1 °C81.2 %1.5 m/s S
1.10.2022 13:38Blansko14.8 °C66.1 %0.8 m/s NE
1.10.2022 13:37Nebovidy15.3 °C64.2 %2.1 m/s NE
1.10.2022 13:37Kravsko15.6 °C60.1 %0.6 m/s SE
1.10.2022 13:34Pohořelice16.0 °C58.9 %4.2 m/s NE
1.10.2022 13:38Pozořice14.8 °C78.5 %1.7 m/s NW
1.10.2022 13:37Předklášteří15.4 °C100.0 %1.4 m/s SE
1.10.2022 13:38Brno - Přízřenice15.2 °C57.5 %2.6 m/s NE
1.10.2022 13:38Brno - Jih16.0 °C57.4 %1.8 m/s SW
1.10.2022 13:38Šlapanice15.7 °C69.1 %0.0 m/s NW
1.10.2022 13:38Strážnice GUMEX13.6 °C73.5 %2.5 m/s N
1.10.2022 13:38Troubsko15.9 °C59.4 %2.0 m/s NW
1.10.2022 13:37Veselí nad Moravou15.2 °C78.4 %0.9 m/s E
1.10.2022 13:38Kněževes Veselka12.2 °C77.1 %2.8 m/s S
1.10.2022 13:38Višňové20.6 °C40.4 %0.0 m/s W
1.10.2022 13:38Vlasatice16.1 °C53.4 %2.6 m/s NE
1.10.2022 13:38Vrbovec15.7 °C72.3 %1.2 m/s N
1.10.2022 13:37Rájec-Jestřebí14.2 °C87.8 %1.6 m/s E
1.10.2022 13:37Žarošice16.1 °C65.8 %1.9 m/s SW
Email notifications
Enter your email address to subscribe to notifications about news at warioweather.com. Your email address will not be used for any purpose other than sending these emails and will not be provided to any third party. The subscription can be ended at any time.
All data are only indicative. The portal administrator has no responsibility for potentially incorrect data and related consequences. Publishing or further sharing of content from www.warioweather.com is only allowed with written consent from WANET s.r.o.